Perth Airport Weather

Latest weather

Perth Scone (EGPT) Weather updates coming soon.

Below are some surrounding airfields, alternative you can view our webcam below or contact Perth radio operator who can assist.

Dundee Weather - Distance 12nm Track 086'

[Source: ADDS]
METAR
WX-Data not avlb.
(due to wrong input of icao-codes or 'allow_url_fopen' is OFF [1] and cURL not enabled [1] on this server!)
TAF

RAF Leuchars Weather - Distance 17nm Track 103'

[Source: ADDS]
METAR
EGQL 220650Z 25011KT 9999 FEW030 SCT230 05/04 Q1031 RMK BLU =
EGQL 220715Z 2209/2218 26014KT 9999 FEW025 TEMPO 2211/2218 BKN020 PROB30 TEMPO 2212/2218 SCT010 BKN018
TAF
EGQL 220715Z 2209/2218 26014KT 9999 FEW025 TEMPO 2211/2218 BKN020 PROB30 TEMPO 2212/2218 SCT010 BKN018 =

Edinburgh Weather - Distance 29nm Track 180'

[Source: ADDS]
METAR
EGPH 220720Z 24012KT 9999 OVC010 07/06 Q1032 =
EGPH 220457Z 2206/2306 25012KT 9999 BKN018 TEMPO 2206/2306 BKN013 PROB40 TEMPO 2206/2218 7000 -RADZ BKN008
TAF
EGPH 220457Z 2206/2306 25012KT 9999 BKN018 TEMPO 2206/2306 BKN013 PROB40 TEMPO 2206/2218 7000 -RADZ BKN008 =

Aberdeen Weather - Distance 60nm Track 040'

[Source: ADDS]
METAR
EGPD 220720Z AUTO VRB02KT 9999 NCD 00/M01 Q1030 NOSIG =
EGPD 220457Z 2206/2306 22005KT 9999 FEW030 PROB30 TEMPO 2214/2220 BKN014
TAF
EGPD 220457Z 2206/2306 22005KT 9999 FEW030 PROB30 TEMPO 2214/2220 BKN014 =

Drone Tour of Perth Airport

Watch a full aerial tour of the Perth Airport runways 15/33, 09/27, 03/21. Follow our based Piper PA28-161 Warrior taking you on a tour of Perth Scone Aerodrome. The footage is captured in stunning 4K quality by the DJI Mavic Drone.
Morris Leslie Group Logo
ACS Engineering
Scotland's Charity Air Ambulance Logo
Air Service Training Logo

Get started with your first flight lesson with ACS Flight Training

Copyright 2021. ACS Aviation - Website designed by Xtensive